Scroll down
FLIGHT INFORMATION
Qantas

QFA923

At Arrival Gate

YBCS
 YSSY
DATE: 2020-07-16
GATE:  -
GATE DEPARTURE: 03:33
TAKEOFF: 03:52
DATE: 2020-07-16
GATE: 9
LANDING: 06:26
GATE ARRIVAL: 06:37
FLIGHT DATA
Crew: 
Speed: 
874 kph
Altitude: 
37,050 ft
Stage Length: 
1,972.6 km
Block Time: 
3 hrs
Flight Time: 
2.6 hrs
Fuel Used: 
6,940 kg
Cleared Route: YBCS SWIFT JEMMA STAIR KANKO ROKUU DALAS SCONB CORKY SADLO BOREE YSSY
TRACK DATA
50,000 ft 1,000 kts
AIRCRAFT INFO AND CUMULATIVE STATS
Aircraft Type: 
B738BW
Registration: 
SELCAL: 
MSN/LN: 
33483 / 1177
Operator: 
Total Flights: 
16
Total Block Time: 
38.8 hrs
Total Flight Time: 
35.3 hrs
Total Fuel Time: 
101,622 kg
DATALINK LOG | Newest first | Current as of: 2021-06-22 14:02:33
LABEL SEQUENCE CONTENT Dn/Up
QD304406:37 6.5▼ Dn
QC193506:26▼ Dn
GA3247GATE 9▲ Up
GR3247YSSY 06:23 HI-VAL NO DIPL/VIP NO▼ Dn
5U0938YSSY 080800Z 18014KT 9999 SCT030 15/09 Q1027▲ Up
5S0219YSSY▼ Dn
2U0728YSSY 080340Z 18912KT 9999 -RA SCT038 BKN044 BKN054 15/09 Q1027 RMK ADVANCED INTERPOLATION▲ Up
2S0019YSSY▼ Dn
5R1835JEMMA 04:21z FL369 STAIR 04:43z KANKO M0.78 7.4 -49 279/63 YSSY 06:24z▼ Dn
QB445303:52▼ Dn
QA050203:33 21.8▼ Dn
Q04918[LINK ACK]▲ Up
Q04918[LINK TEST]▼ Dn


AIRCRAFT HISTORY
FLIGHT DATE FLIGHT NO. ORIGIN DESTINATION CLEARED ROUTE BLOCK TIME FLIGHT TIME FUEL USED PILOT
2021-03-24QFA324AGGN AYPY AGGN 09S50 AYPY1.6 hrs1.5 hrs9,485 lbKevin Hall
2021-03-23QFA323NFFN AGGN NFFN NN ISMOP INTID ISPAL TAVER LEGOT KAKSI VAKRO HN SALIT AVBAP AGGN3.4 hrs3.2 hrs20,521 lbKevin Hall
2021-02-11QFA211YSNF NFFN YSNF TERUX NILAX VENAN VIPOB NFFN2.3 hrs2.1 hrs13,661 lbKevin Hall
2021-02-11QFA211NZWN YSNF NZWN RUSIL ENBUG OPABI LEKUS UPLAR NF YSNF2.5 hrs2.3 hrs15,675 lbKevin Hall
2021-02-10QFA210NZQN NZWN NZQN TIMJO TIMJO DOPKI GRETA LUXEV WARDS NZWN1.2 hrs1.1 hrs7,231 lbKevin Hall
2021-02-10QFA210NZCH NZQN NZCH GUPUT SUNAR UPNIX ELRUV NZQN0.9 hrs0.7 hrs5,340 lbKevin Hall
2021-02-03QFA203YSSY NZCH YSSY KAMPI PLUGA BOKED SULON VANDA NZCH3.1 hrs2.8 hrs17,935 lbAlex K.
2020-08-03QFA1234YMML YSSY YMML DOSEL EBONY ARRAN NONUP CULIN TARAL RIVET YSSY1.3 hrs1.1 hrs7,112 lbKevin Hall
2020-07-26QFA726YBBN YMML YBBN SANEG ISKIM GIZMO PKS POLSO ORINO CANTY ARBEY YMML2.1 hrs1.9 hrs11,896 lbKevin Hall
2020-07-26QFA982YBAS YBBN YBAS PULOL MITTS NONET VILOL ROMNB ROWLO HAWKE LAMUG SMOKA YBBN2.5 hrs2.3 hrs12,539 lbMike Dryden
2020-07-24QFA722YPAD YBAS YPAD HAWKY SPOTA WHANB OJJAY WRNB CARTS GOMUL SARAH SADEL AS YBAS2.4 hrs2.1 hrs11,887 lbMike Dryden
2020-07-22QFA741YSSY YPAD YSSY KADOM LIDLI CWRNB BORLI MAXEM WOONA BLACK YPAD2.1 hrs1.8 hrs11,283 lbMike Dryden
2020-07-16QFA923YBCS YSSY YBCS SWIFT JEMMA STAIR KANKO ROKUU DALAS SCONB CORKY SADLO BOREE YSSY3 hrs2.6 hrs15,300 lbMike Dryden
2020-07-15QFA346NZAA YBCS NZAA SALAG IGLET TEKEP PADDY LEEAM ELDEK HM SWALO BARIA YBCS5.8 hrs5.5 hrs33,703 lbMike Dryden
2020-03-24QFA324NZCH NZAA 1.5 hrs1.2 hrs14,116 lbCharles Harris
2020-03-15QFA315YMML NZCH 3.3 hrs3 hrs16,354 lbRandall Smith